Flight Track Log - Related Links

Times and Time Zones

All times are in EDT time to prevent confusion due to time zone crossing. See the TAM3740 flight status page for this flight to view local times or setup timezone preferences in your user account.

Time Position Orientation Groundspeed Altitude Reporting Facility
EDT Latitude Longitude Course Direction KTS MPH feet Rate Location/Type
Thu 06:53:46 AM -23.6230 -46.6600 236° Southwest  Level FlightAware ADS-B
Thu 06:57:00 AM -23.4795 -46.8034 317° Northwest  Level Estimated
Thu 06:57:57 AM -23.6200 -46.6610 317° Northwest  Level FlightAware ADS-B
Thu 06:58:00 AM -23.4098 -46.8733 317° Northwest  Level Estimated
Thu 06:59:14 AM -23.6430 -46.6460 149° Southeast 149 171 3,100  Level FlightAware ADS-B
Thu 06:59:19 AM -23.6460 -46.6440 149° Southeast 153 176 3,200 1,800 Climbing FlightAware ADS-B
Thu 06:59:24 AM -23.6510 -46.6440 180° South 161 185 3,400 1,200 Climbing FlightAware ADS-B
Thu 06:59:44 AM -23.6650 -46.6530 210° Southwest 198 228 3,700 923 Climbing FlightAware ADS-B
Thu 06:59:50 AM -23.6680 -46.6580 237° Southwest 212 244 3,800 1,500 Climbing FlightAware ADS-B
Thu 07:00:00 AM -23.6700 -46.6680 258° West 216 249 4,100 2,400 Climbing FlightAware ADS-B
Thu 07:00:20 AM -23.6670 -46.6910 278° West 213 245 5,000 2,308 Climbing FlightAware ADS-B
Thu 07:00:39 AM -23.6640 -46.7110 279° West 213 245 5,600 1,800 Climbing FlightAware ADS-B
Thu 07:01:00 AM -23.6590 -46.7340 283° West 235 270 6,200 1,902 Climbing FlightAware ADS-B
Thu 07:01:20 AM -23.6530 -46.7580 285° West 256 295 6,900 1,950 Climbing FlightAware ADS-B
Thu 07:01:40 AM -23.6470 -46.7850 284° West 280 322 7,500 2,400 Climbing FlightAware ADS-B
Thu 07:01:55 AM -23.6420 -46.8070 284° West 280 322 8,300 3,000 Climbing FlightAware ADS-B
Thu 07:02:20 AM -23.6340 -46.8400 285° West 286 329 9,500 2,464 Climbing FlightAware ADS-B
Thu 07:02:51 AM -23.6240 -46.8830 284° West 306 352 10,600 1,818 Climbing FlightAware ADS-B
Thu 07:03:26 AM -23.6110 -46.9390 284° West 342 394 11,500 1,826 Climbing FlightAware ADS-B
Thu 07:04:00 AM -23.5970 -47.0000 284° West 359 413 12,700 2,314 Climbing FlightAware ADS-B
Thu 07:04:36 AM -23.5810 -47.0650 285° West 369 425 14,200 2,451 Climbing FlightAware ADS-B
Thu 07:05:11 AM -23.5660 -47.1300 284° West 376 433 15,600 2,400 Climbing FlightAware ADS-B
Thu 07:05:46 AM -23.5450 -47.1900 291° West 383 441 17,000 2,314 Climbing FlightAware ADS-B
Thu 07:06:21 AM -23.5090 -47.2460 305° West 386 444 18,300 2,314 Climbing FlightAware ADS-B
Thu 07:06:56 AM -23.4720 -47.3040 305° West 395 455 19,700 2,028 Climbing FlightAware ADS-B
Thu 07:07:32 AM -23.4360 -47.3620 304° West 405 466 20,700 2,113 Climbing FlightAware ADS-B
Thu 07:08:07 AM -23.3990 -47.4200 305° West 401 461 22,200 2,435 Climbing FlightAware ADS-B
Thu 07:08:41 AM -23.3600 -47.4810 305° West 405 466 23,500 2,087 Climbing FlightAware ADS-B
Thu 07:09:16 AM -23.3240 -47.5370 305° West 405 466 24,600 1,775 Climbing FlightAware ADS-B
Thu 07:09:52 AM -23.2860 -47.5990 304° West 406 467 25,600 1,583 Climbing FlightAware ADS-B
Thu 07:10:28 AM -23.2490 -47.6570 305° West 411 473 26,500 1,543 Climbing FlightAware ADS-B
Thu 07:11:02 AM -23.2080 -47.7210 305° West 414 476 27,400 2,308 Climbing FlightAware ADS-B
Thu 07:11:59 AM -23.1490 -47.8130 305° West 389 448 30,000 2,553 Climbing FlightAware ADS-B
Thu 07:12:36 AM -23.1100 -47.8740 305° West 378 435 31,400 1,739 Climbing FlightAware ADS-B
Thu 07:13:08 AM -23.0790 -47.9240 304° West 366 421 32,000 537 Climbing FlightAware ADS-B
Thu 07:13:43 AM -23.0450 -47.9770 305° West 365 420 32,000  Level FlightAware ADS-B
Thu 07:14:17 AM -23.0110 -48.0290 305° West 373 429 32,000  Level FlightAware ADS-B
Thu 07:14:55 AM -22.9750 -48.0850 305° West 378 435 32,000  Level FlightAware ADS-B
Thu 07:15:27 AM -22.9420 -48.1370 305° West 380 437 32,000  Level FlightAware ADS-B
Thu 07:16:04 AM -22.9060 -48.1920 305° West 381 438 32,000  Level FlightAware ADS-B
Thu 07:16:35 AM -22.8730 -48.2430 305° West 382 440 32,000  Level FlightAware ADS-B
Thu 07:17:11 AM -22.8370 -48.3000 304° West 382 440 32,000  Level FlightAware ADS-B
Thu 07:17:45 AM -22.8010 -48.3540 306° West 381 438 32,000  Level FlightAware ADS-B
Thu 07:18:25 AM -22.7610 -48.4140 306° West 379 436 32,000  Level FlightAware ADS-B
Thu 07:19:00 AM -22.7260 -48.4670 306° West 378 435 32,000  Level FlightAware ADS-B
Thu 07:19:33 AM -22.6900 -48.5210 306° West 377 434 32,000  Level FlightAware ADS-B
Thu 07:20:09 AM -22.6550 -48.5760 305° West 377 434 32,000  Level FlightAware ADS-B
Thu 07:20:42 AM -22.6230 -48.6270 304° West 378 435 32,000  Level FlightAware ADS-B
Thu 07:21:18 AM -22.5880 -48.6820 305° West 379 436 32,000  Level FlightAware ADS-B
Thu 07:21:53 AM -22.5520 -48.7390 304° West 380 437 32,000  Level FlightAware ADS-B
Thu 07:22:27 AM -22.5180 -48.7920 305° West 382 440 32,000  Level FlightAware ADS-B
Thu 07:23:05 AM -22.4790 -48.8510 306° West 381 438 32,000  Level FlightAware ADS-B
Thu 07:23:38 AM -22.4480 -48.9000 304° West 381 438 32,000  Level FlightAware ADS-B
Thu 07:24:14 AM -22.4100 -48.9590 305° West 381 438 32,000  Level FlightAware ADS-B
Thu 07:24:45 AM -22.3780 -49.0080 305° West 380 437 32,000  Level FlightAware ADS-B
Thu 07:25:23 AM -22.3400 -49.0680 304° West 381 438 32,000  Level FlightAware ADS-B
Thu 07:25:59 AM -22.2970 -49.1200 312° West 389 448 32,000 -1,667 Level FlightAware ADS-B
Thu 07:26:35 AM -22.2470 -49.1660 320° Northwest 414 476 30,000 -3,176 Descending FlightAware ADS-B
Thu 07:27:07 AM -22.1980 -49.2090 321° Northwest 418 481 28,400 -2,647 Descending FlightAware ADS-B
Thu 07:27:43 AM -22.1450 -49.2550 321° Northwest 409 471 27,000 -2,282 Descending FlightAware ADS-B
Thu 07:28:18 AM -22.0960 -49.2980 321° Northwest 400 460 25,700 -2,118 Descending FlightAware ADS-B
Thu 07:28:51 AM -22.0460 -49.3410 321° Northwest 396 456 24,600 -1,973 Descending FlightAware ADS-B
Thu 07:29:31 AM -21.9900 -49.3910 320° Northwest 389 448 23,300 -1,917 Descending FlightAware ADS-B
Thu 07:30:03 AM -21.9450 -49.4300 321° Northwest 385 443 22,300 -1,909 Descending FlightAware ADS-B
Thu 07:30:37 AM -21.8980 -49.4700 322° Northwest 382 440 21,200 -1,886 Descending FlightAware ADS-B
Thu 07:31:13 AM -21.8510 -49.5120 320° Northwest 379 436 20,100 -1,800 Descending FlightAware ADS-B
Thu 07:31:47 AM -21.8030 -49.5540 321° Northwest 373 429 19,100 -1,588 Descending FlightAware ADS-B
Thu 07:32:21 AM -21.7580 -49.5920 322° Northwest 356 410 18,300 -2,133 Descending FlightAware ADS-B
Thu 07:32:32 AM -21.7420 -49.6000 335° Northwest 367 422 17,500 -2,885 Descending FlightAware ADS-B
Thu 07:33:13 AM -21.6730 -49.6020 358° North 374 430 15,800 -2,333 Descending FlightAware ADS-B
Thu 07:33:44 AM -21.6190 -49.5970 North 368 423 14,700 -1,846 Descending FlightAware ADS-B
Thu 07:34:18 AM -21.5620 -49.5940 North 358 412 13,800 -1,622 Descending FlightAware ADS-B
Thu 07:34:58 AM -21.4970 -49.5910 North 346 398 12,700 -1,429 Descending FlightAware ADS-B
Thu 07:35:21 AM -21.4620 -49.5920 358° North 336 387 12,300 -1,477 Descending FlightAware ADS-B
Thu 07:36:03 AM -21.3940 -49.5970 356° North 325 374 11,100 -1,579 Descending FlightAware ADS-B
Thu 07:36:37 AM -21.3440 -49.6000 357° North 317 365 10,300 -1,065 Descending FlightAware ADS-B
Thu 07:37:05 AM -21.3040 -49.6030 356° North 296 341 10,000 -857 Descending FlightAware ADS-B
Thu 07:37:26 AM -21.2760 -49.6040 358° North 292 336 9,600 -1,297 Descending FlightAware ADS-B
Thu 07:37:42 AM -21.2560 -49.6050 357° North 295 339 9,200 -1,500 Descending FlightAware ADS-B
Thu 07:38:06 AM -21.2230 -49.6070 357° North 297 342 8,600 -1,532 Descending FlightAware ADS-B
Thu 07:38:29 AM -21.1900 -49.6100 355° North 295 339 8,000 -1,500 Descending FlightAware ADS-B
Thu 07:38:46 AM -21.1670 -49.6110 358° North 294 338 7,600 -1,532 Descending FlightAware ADS-B
Thu 07:39:16 AM -21.1300 -49.6130 357° North 291 335 6,800 -1,560 Descending FlightAware ADS-B
Thu 07:39:36 AM -21.1050 -49.6150 356° North 292 336 6,300 -1,538 Descending FlightAware ADS-B
Thu 07:39:55 AM -21.0750 -49.6160 358° North 290 334 5,800 -1,385 Descending FlightAware ADS-B
Thu 07:40:15 AM -21.0500 -49.6180 356° North 280 322 5,400 -500 Descending FlightAware ADS-B
Thu 07:40:43 AM -21.0190 -49.6200 357° North 280 322 5,400  Level FlightAware ADS-B
Thu 07:43:00 AM -20.8958 -49.4900 45° Northeast  Level Estimated
Thu 07:44:00 AM -20.8418 -49.4331 45° Northeast  Level Estimated
Thu 07:45:00 AM -20.8166 -49.4065 45° Northeast  Level Estimated
Thu 07:46:00 AM -20.8166 -49.4065 343° North  Level Estimated
Thu 07:47:00 AM -20.8166 -49.4065 343° North  Level Estimated
Thu 07:48:00 AM -20.8166 -49.4065 343° North  Level Estimated
Thu 07:49:00 AM -20.8166 -49.4065 343° North  Level Estimated
Thu 07:50:00 AM -20.8166 -49.4065 343° North  Level Estimated
Thu 07:51:00 AM -20.8166 -49.4065 343° North  Level Estimated
Thu 07:52:00 AM -20.8166 -49.4065 343° North  Level Estimated
Thu 07:53:00 AM -20.8166 -49.4065 343° North  Level Estimated
Thu 07:54:00 AM -20.8166 -49.4065 343° North  Level Estimated
Thu 07:55:00 AM -20.8166 -49.4065 343° North  Level Estimated
Thu 07:56:00 AM -20.8166 -49.4065 343° North  Level Estimated
Thu 07:57:00 AM -20.8166 -49.4065 343° North  Level Estimated
Thu 07:58:00 AM -20.8166 -49.4065 343° North  Level Estimated
Thu 07:59:00 AM -20.8166 -49.4065 343° North  Level Estimated
Thu 08:00:00 AM -20.8166 -49.4065 343° North  Level Estimated
Thu 08:01:00 AM -20.8166 -49.4065 343° North  Level Estimated
Thu 08:02:00 AM -20.8166 -49.4065 343° North  Level Estimated
Thu 08:03:00 AM -20.8166 -49.4065 343° North  Level Estimated
Thu 08:04:00 AM -20.8166 -49.4065 343° North  Level Estimated

Login

Don't have an account? Register now (free) for customized features, flight alerts, and more!